Time;durP1;ratioP1;P1;durP2;ratioP2;P2;SDS_P1;SDS_P2;PMS_P1;PMS_P2;Temp;Humidity;BMP_temperature;BMP_pressure;BME280_temperature;BME280_humidity;BME280_pressure;Samples;Min_cycle;Max_cycle;Signal;HPM_P1;HPM_P2
2021/05/08 00:00:59;;;;;;;;;;;2.10;95.60;;;;;;5110818;28;19997;-68
2021/05/08 00:03:25;;;;;;;;;;;2.10;95.70;;;;;;5108531;28;19994;-69
2021/05/08 00:05:50;;;;;;;;;;;2.10;95.60;;;;;;5107102;28;20308;-69
2021/05/08 00:08:16;;;;;;;;;;;2.10;95.70;;;;;;5112776;28;19919;-69
2021/05/08 00:10:42;;;;;;;;;;;2.00;95.80;;;;;;5112853;28;19920;-68
2021/05/08 00:13:08;;;;;;;;;;;2.00;95.90;;;;;;5106446;28;20365;-69
2021/05/08 00:15:33;;;;;;;;;;;2.00;96.00;;;;;;5115029;28;19931;-69
2021/05/08 00:17:59;;;;;;;;;;;2.10;96.00;;;;;;5113652;28;19982;-69
2021/05/08 00:20:25;;;;;;;;;;;2.00;95.70;;;;;;5106717;28;20385;-69
2021/05/08 00:22:50;;;;;;;;;;;2.00;95.60;;;;;;5098648;28;19920;-68
2021/05/08 00:25:16;;;;;;;;;;;2.10;95.70;;;;;;5105688;28;19912;-69
2021/05/08 00:27:41;;;;;;;;;;;2.00;95.70;;;;;;5115214;28;19938;-69
2021/05/08 00:30:07;;;;;;;;;;;2.10;95.80;;;;;;5102073;28;19924;-69
2021/05/08 00:32:34;;;;;;;;;;;2.10;95.40;;;;;;5105757;28;19916;-70
2021/05/08 00:34:59;;;;;;;;;;;2.10;95.30;;;;;;5101854;28;19916;-69
2021/05/08 00:37:25;;;;;;;;;;;2.10;95.30;;;;;;5098486;27;19912;-69
2021/05/08 00:39:50;;;;;;;;;;;2.10;95.40;;;;;;5096180;28;19981;-69
2021/05/08 00:42:16;;;;;;;;;;;2.10;95.50;;;;;;5102245;28;20224;-70
2021/05/08 00:44:42;;;;;;;;;;;2.00;95.70;;;;;;5108465;28;19955;-69
2021/05/08 00:47:11;;;;;;;;;;;2.00;96.00;;;;;;5097999;28;19928;-69
2021/05/08 00:49:37;;;;;;;;;;;2.00;95.60;;;;;;5109839;28;19965;-70
2021/05/08 00:52:04;;;;;;;;;;;2.00;95.30;;;;;;5115012;28;19937;-70
2021/05/08 00:54:30;;;;;;;;;;;2.10;95.40;;;;;;5111639;28;19919;-69
2021/05/08 00:56:55;;;;;;;;;;;2.10;95.40;;;;;;5093046;28;19911;-71
2021/05/08 00:59:21;;;;;;;;;;;2.00;95.20;;;;;;5116603;27;20297;-70
2021/05/08 01:01:46;;;;;;;;;;;2.10;95.10;;;;;;5114938;28;20327;-69
2021/05/08 01:04:12;;;;;;;;;;;2.00;95.10;;;;;;5114954;28;19919;-69
2021/05/08 01:06:38;;;;;;;;;;;2.00;95.20;;;;;;5095729;28;19916;-70
2021/05/08 01:09:04;;;;;;;;;;;2.00;95.10;;;;;;5102103;28;19920;-70
2021/05/08 01:11:30;;;;;;;;;;;1.90;95.00;;;;;;5111648;28;20592;-69
2021/05/08 01:13:56;;;;;;;;;;;1.90;95.10;;;;;;5117213;28;19938;-68
2021/05/08 01:16:27;;;;;;;;;;;1.90;95.40;;;;;;5110457;28;19926;-69
2021/05/08 01:18:54;;;;;;;;;;;1.90;95.60;;;;;;5102222;28;19965;-69
2021/05/08 01:21:20;;;;;;;;;;;1.90;95.40;;;;;;5096304;28;20270;-70
2021/05/08 01:23:46;;;;;;;;;;;1.90;95.50;;;;;;5101990;28;19912;-71
2021/05/08 01:26:12;;;;;;;;;;;1.90;95.60;;;;;;5113290;28;19912;-70
2021/05/08 01:28:38;;;;;;;;;;;1.90;95.80;;;;;;5098276;28;20518;-70
2021/05/08 01:31:04;;;;;;;;;;;2.00;95.70;;;;;;5117861;27;19912;-71
2021/05/08 01:33:30;;;;;;;;;;;1.90;95.50;;;;;;5115452;28;19919;-71
2021/05/08 01:35:55;;;;;;;;;;;1.90;95.50;;;;;;5116253;28;19969;-71
2021/05/08 01:38:24;;;;;;;;;;;1.90;95.50;;;;;;5115262;28;20262;-71
2021/05/08 01:40:57;;;;;;;;;;;1.90;95.60;;;;;;5098398;28;19912;-70
2021/05/08 01:43:22;;;;;;;;;;;2.00;95.40;;;;;;5108219;28;19912;-69
2021/05/08 01:45:48;;;;;;;;;;;2.00;95.30;;;;;;5115677;28;20342;-71
2021/05/08 01:48:13;;;;;;;;;;;2.00;95.30;;;;;;5098306;28;19912;-70
2021/05/08 01:50:39;;;;;;;;;;;1.90;95.40;;;;;;5115702;28;19912;-70
2021/05/08 01:53:04;;;;;;;;;;;1.80;95.50;;;;;;5081375;28;19991;-69
2021/05/08 01:55:30;;;;;;;;;;;1.90;95.50;;;;;;5097219;28;19998;-69
2021/05/08 01:57:56;;;;;;;;;;;1.90;95.30;;;;;;5113317;28;19955;-70
2021/05/08 02:00:23;;;;;;;;;;;1.80;95.50;;;;;;5113451;28;19962;-70
2021/05/08 02:02:49;;;;;;;;;;;1.80;95.50;;;;;;5096274;28;19937;-70
2021/05/08 02:05:15;;;;;;;;;;;1.80;95.40;;;;;;5108816;28;20304;-70
2021/05/08 02:07:41;;;;;;;;;;;2.00;95.00;;;;;;5113132;28;19911;-70
2021/05/08 02:10:07;;;;;;;;;;;2.00;94.90;;;;;;5102976;28;20304;-70
2021/05/08 02:12:34;;;;;;;;;;;2.10;95.00;;;;;;5109144;28;19934;-70
2021/05/08 02:14:59;;;;;;;;;;;2.30;94.70;;;;;;5110281;28;19916;-68
2021/05/08 02:17:25;;;;;;;;;;;2.30;94.40;;;;;;5105294;28;19918;-70
2021/05/08 02:19:50;;;;;;;;;;;2.30;94.40;;;;;;5102215;28;20205;-70
2021/05/08 02:22:17;;;;;;;;;;;2.30;94.60;;;;;;5102063;28;19922;-70
2021/05/08 02:24:42;;;;;;;;;;;2.40;94.40;;;;;;5112558;28;19918;-70
2021/05/08 02:27:08;;;;;;;;;;;2.40;94.10;;;;;;5115666;28;19912;-70
2021/05/08 02:29:33;;;;;;;;;;;2.60;93.80;;;;;;5114175;28;19960;-70
2021/05/08 02:31:59;;;;;;;;;;;2.70;93.50;;;;;;5103558;28;20324;-70
2021/05/08 02:34:24;;;;;;;;;;;2.70;93.40;;;;;;5110262;28;19958;-70
2021/05/08 02:36:50;;;;;;;;;;;2.70;93.30;;;;;;5097025;28;20301;-70
2021/05/08 02:39:15;;;;;;;;;;;2.70;93.10;;;;;;5114748;28;20250;-70
2021/05/08 02:41:41;;;;;;;;;;;2.80;92.80;;;;;;5115365;28;19969;-70
2021/05/08 02:44:06;;;;;;;;;;;2.80;92.80;;;;;;5114950;28;19912;-70
2021/05/08 02:46:32;;;;;;;;;;;2.80;92.70;;;;;;5113955;28;19976;-70
2021/05/08 02:48:57;;;;;;;;;;;2.80;92.80;;;;;;5113495;28;19911;-71
2021/05/08 02:51:24;;;;;;;;;;;2.70;92.80;;;;;;5110677;28;19908;-70
2021/05/08 02:53:50;;;;;;;;;;;2.70;93.10;;;;;;5110143;28;19916;-70
2021/05/08 02:56:18;;;;;;;;;;;2.50;93.30;;;;;;5115209;28;19935;-70
2021/05/08 02:58:44;;;;;;;;;;;2.40;93.70;;;;;;5092286;28;19908;-70
2021/05/08 03:01:10;;;;;;;;;;;2.40;93.90;;;;;;5101246;28;19950;-71
2021/05/08 03:03:36;;;;;;;;;;;2.40;93.90;;;;;;5105859;28;19943;-70
2021/05/08 03:06:01;;;;;;;;;;;2.30;94.20;;;;;;5112586;28;20388;-70
2021/05/08 03:08:27;;;;;;;;;;;2.20;94.40;;;;;;5115709;28;19911;-71
2021/05/08 03:10:52;;;;;;;;;;;2.20;94.60;;;;;;5107025;28;19912;-70
2021/05/08 03:13:18;;;;;;;;;;;2.20;94.70;;;;;;5115763;28;20011;-71
2021/05/08 03:15:44;;;;;;;;;;;2.30;94.40;;;;;;5112995;28;19920;-70
2021/05/08 03:18:10;;;;;;;;;;;2.20;94.50;;;;;;5111940;28;19915;-70
2021/05/08 03:20:36;;;;;;;;;;;2.20;94.60;;;;;;5114178;28;20647;-69
2021/05/08 03:23:01;;;;;;;;;;;2.20;94.50;;;;;;5111337;28;19916;-70
2021/05/08 03:25:27;;;;;;;;;;;2.20;94.50;;;;;;5097577;28;20350;-70
2021/05/08 03:27:52;;;;;;;;;;;2.20;94.50;;;;;;5098121;28;19958;-70
2021/05/08 03:30:18;;;;;;;;;;;2.20;94.60;;;;;;5106014;28;20312;-70
2021/05/08 03:32:43;;;;;;;;;;;2.10;94.60;;;;;;5115393;28;19915;-70
2021/05/08 03:35:09;;;;;;;;;;;2.10;94.70;;;;;;5114427;28;19966;-70
2021/05/08 03:37:35;;;;;;;;;;;2.00;94.70;;;;;;5094349;28;19961;-70
2021/05/08 03:40:00;;;;;;;;;;;2.00;95.00;;;;;;5113914;28;19947;-70
2021/05/08 03:42:26;;;;;;;;;;;2.00;94.90;;;;;;5114263;28;19970;-70
2021/05/08 03:44:51;;;;;;;;;;;2.00;94.90;;;;;;5115454;28;19951;-71
2021/05/08 03:47:17;;;;;;;;;;;1.90;95.30;;;;;;5108835;28;19916;-70
2021/05/08 03:49:45;;;;;;;;;;;2.00;95.00;;;;;;5108762;28;19957;-71
2021/05/08 03:52:10;;;;;;;;;;;2.00;94.90;;;;;;5113749;28;19922;-71
2021/05/08 03:54:37;;;;;;;;;;;2.00;94.90;;;;;;5115823;28;19911;-71
2021/05/08 03:57:02;;;;;;;;;;;1.90;95.00;;;;;;5118148;28;20204;-70
2021/05/08 03:59:28;;;;;;;;;;;1.70;95.50;;;;;;5085566;28;19912;-70
2021/05/08 04:01:53;;;;;;;;;;;1.50;95.80;;;;;;5112186;28;20018;-69
2021/05/08 04:04:22;;;;;;;;;;;1.30;96.30;;;;;;5115227;28;20025;-70
2021/05/08 04:06:47;;;;;;;;;;;1.20;96.50;;;;;;5122705;27;19995;-69
2021/05/08 04:09:13;;;;;;;;;;;1.10;96.60;;;;;;5101925;28;19912;-69
2021/05/08 04:11:39;;;;;;;;;;;1.10;96.70;;;;;;5105555;27;19919;-69
2021/05/08 04:14:05;;;;;;;;;;;1.10;97.00;;;;;;5114473;28;20295;-69
2021/05/08 04:16:31;;;;;;;;;;;1.20;97.00;;;;;;5097986;28;19920;-71
2021/05/08 04:18:57;;;;;;;;;;;1.20;96.90;;;;;;5111907;28;19954;-71
2021/05/08 04:21:26;;;;;;;;;;;1.30;96.90;;;;;;5116440;28;19923;-72
2021/05/08 04:23:52;;;;;;;;;;;1.20;96.80;;;;;;5115506;28;19947;-71
2021/05/08 04:26:18;;;;;;;;;;;1.20;96.70;;;;;;5111750;28;20309;-70
2021/05/08 04:28:43;;;;;;;;;;;1.20;96.90;;;;;;5107236;28;19922;-71
2021/05/08 04:31:09;;;;;;;;;;;1.20;97.00;;;;;;5109462;28;19911;-70
2021/05/08 04:33:34;;;;;;;;;;;1.20;97.10;;;;;;5116315;28;19950;-71
2021/05/08 04:36:00;;;;;;;;;;;1.20;97.00;;;;;;5115966;28;19915;-70
2021/05/08 04:38:25;;;;;;;;;;;1.20;97.00;;;;;;5110039;28;19922;-70
2021/05/08 04:40:54;;;;;;;;;;;1.20;97.10;;;;;;5114978;28;20006;-70
2021/05/08 04:43:20;;;;;;;;;;;1.20;97.00;;;;;;5118109;28;19961;-70
2021/05/08 04:45:45;;;;;;;;;;;1.30;97.30;;;;;;5109920;28;19912;-70
2021/05/08 04:48:11;;;;;;;;;;;1.40;97.20;;;;;;5111683;28;19916;-70
2021/05/08 04:50:36;;;;;;;;;;;1.40;97.00;;;;;;5116935;28;19912;-70
2021/05/08 04:53:02;;;;;;;;;;;1.50;97.10;;;;;;5116971;28;19916;-70
2021/05/08 04:55:27;;;;;;;;;;;1.60;96.80;;;;;;5113288;28;20025;-71
2021/05/08 04:57:55;;;;;;;;;;;1.70;96.60;;;;;;5114252;28;20018;-70
2021/05/08 05:00:21;;;;;;;;;;;1.70;96.70;;;;;;5110569;28;19911;-70
2021/05/08 05:02:47;;;;;;;;;;;1.90;96.60;;;;;;5105570;28;19924;-70
2021/05/08 05:05:13;;;;;;;;;;;2.30;95.50;;;;;;5110716;28;19923;-70
2021/05/08 05:07:42;;;;;;;;;;;2.80;94.10;;;;;;5115551;28;20669;-70
2021/05/08 05:10:08;;;;;;;;;;;3.10;93.00;;;;;;5114658;28;19916;-71
2021/05/08 05:12:33;;;;;;;;;;;3.30;92.00;;;;;;5117605;28;20312;-71
2021/05/08 05:14:59;;;;;;;;;;;3.60;91.10;;;;;;5106119;28;19923;-70
2021/05/08 05:17:24;;;;;;;;;;;3.70;90.90;;;;;;5079126;28;19918;-71
2021/05/08 05:19:50;;;;;;;;;;;4.00;89.60;;;;;;5099112;28;19916;-70
2021/05/08 05:22:15;;;;;;;;;;;4.20;89.10;;;;;;5111382;28;19938;-71
2021/05/08 05:24:41;;;;;;;;;;;4.40;88.00;;;;;;5109518;28;20220;-71
2021/05/08 05:27:06;;;;;;;;;;;4.70;87.20;;;;;;5107566;28;19926;-71
2021/05/08 05:29:32;;;;;;;;;;;4.90;86.00;;;;;;5112770;28;19919;-70
2021/05/08 05:31:57;;;;;;;;;;;5.10;85.60;;;;;;5116637;28;19916;-70
2021/05/08 05:34:23;;;;;;;;;;;5.30;85.20;;;;;;5113954;28;19984;-71
2021/05/08 05:36:48;;;;;;;;;;;5.50;84.70;;;;;;5093741;28;19912;-71
2021/05/08 05:39:17;;;;;;;;;;;5.60;84.50;;;;;;5098245;28;19908;-71
2021/05/08 05:41:42;;;;;;;;;;;5.80;84.20;;;;;;5104368;28;19916;-70
2021/05/08 05:44:08;;;;;;;;;;;6.00;83.60;;;;;;5103337;28;20005;-70
2021/05/08 05:46:33;;;;;;;;;;;6.00;83.40;;;;;;5098773;28;19916;-70
2021/05/08 05:48:59;;;;;;;;;;;6.20;83.40;;;;;;5102950;28;19957;-70
2021/05/08 05:51:25;;;;;;;;;;;6.30;83.40;;;;;;5113572;28;19912;-72
2021/05/08 05:53:56;;;;;;;;;;;6.40;83.40;;;;;;5084437;28;19912;-71
2021/05/08 05:56:25;;;;;;;;;;;6.60;83.10;;;;;;5096715;28;20212;-70
2021/05/08 05:58:51;;;;;;;;;;;6.80;83.10;;;;;;5107657;28;19962;-71
2021/05/08 06:01:16;;;;;;;;;;;6.90;83.70;;;;;;5104299;28;19944;-70
2021/05/08 06:03:42;;;;;;;;;;;7.00;83.90;;;;;;5101796;28;19919;-71
2021/05/08 06:06:07;;;;;;;;;;;7.10;83.50;;;;;;5101339;28;19920;-71
2021/05/08 06:08:33;;;;;;;;;;;7.30;83.10;;;;;;5101889;28;19942;-70
2021/05/08 06:10:59;;;;;;;;;;;7.40;82.80;;;;;;5102807;28;19943;-70
2021/05/08 06:13:24;;;;;;;;;;;7.50;83.00;;;;;;5104910;28;20372;-70
2021/05/08 06:15:52;;;;;;;;;;;7.70;81.50;;;;;;5102386;28;20404;-70
2021/05/08 06:18:18;;;;;;;;;;;7.80;81.80;;;;;;5107526;27;19965;-72
2021/05/08 06:20:43;;;;;;;;;;;7.90;81.60;;;;;;5095928;28;19915;-70
2021/05/08 06:23:10;;;;;;;;;;;8.10;81.30;;;;;;5105641;28;19916;-71
2021/05/08 06:25:36;;;;;;;;;;;8.20;80.70;;;;;;5110975;28;19937;-71
2021/05/08 06:28:01;;;;;;;;;;;8.30;80.70;;;;;;5109830;28;19915;-71
2021/05/08 06:30:27;;;;;;;;;;;8.30;80.10;;;;;;5109703;28;20323;-71
2021/05/08 06:32:52;;;;;;;;;;;8.30;79.30;;;;;;5111589;28;19912;-71
2021/05/08 06:35:18;;;;;;;;;;;8.50;79.30;;;;;;5112973;28;19957;-71
2021/05/08 06:37:48;;;;;;;;;;;8.60;79.20;;;;;;5113342;28;19964;-71
2021/05/08 06:40:13;;;;;;;;;;;8.70;79.50;;;;;;5108618;28;19912;-71
2021/05/08 06:42:39;;;;;;;;;;;8.80;78.90;;;;;;5108021;28;20022;-70
2021/05/08 06:45:07;;;;;;;;;;;9.00;78.00;;;;;;5108402;28;19919;-70
2021/05/08 06:47:33;;;;;;;;;;;9.00;77.00;;;;;;5105677;28;19920;-71
2021/05/08 06:49:58;;;;;;;;;;;9.10;78.00;;;;;;5107268;28;19919;-70
2021/05/08 06:52:24;;;;;;;;;;;9.30;78.50;;;;;;5111352;28;19916;-71
2021/05/08 06:54:50;;;;;;;;;;;9.40;77.40;;;;;;5113906;28;20016;-71
2021/05/08 06:57:15;;;;;;;;;;;9.40;76.90;;;;;;5112777;28;19912;-71
2021/05/08 06:59:41;;;;;;;;;;;9.50;76.70;;;;;;5104291;28;19959;-70
2021/05/08 07:02:07;;;;;;;;;;;9.80;76.00;;;;;;5081667;28;19920;-70
2021/05/08 07:04:33;;;;;;;;;;;10.00;76.60;;;;;;5101012;28;20328;-70
2021/05/08 07:06:58;;;;;;;;;;;10.20;75.20;;;;;;5107775;28;19918;-70
2021/05/08 07:09:24;;;;;;;;;;;10.10;75.00;;;;;;5108796;28;19912;-69
2021/05/08 07:11:49;;;;;;;;;;;10.00;73.60;;;;;;5110178;28;19916;-71
2021/05/08 07:14:15;;;;;;;;;;;10.20;73.30;;;;;;5109624;28;19951;-72
2021/05/08 07:16:40;;;;;;;;;;;10.40;70.10;;;;;;5101104;28;19920;-72
2021/05/08 07:19:06;;;;;;;;;;;10.60;72.80;;;;;;5111847;28;19919;-72
2021/05/08 07:21:31;;;;;;;;;;;10.80;72.70;;;;;;5114607;28;19924;-71
2021/05/08 07:23:59;;;;;;;;;;;11.00;71.90;;;;;;5115233;28;19919;-72
2021/05/08 07:26:25;;;;;;;;;;;11.30;70.80;;;;;;5114458;28;20452;-71
2021/05/08 07:28:50;;;;;;;;;;;11.40;70.80;;;;;;5111751;28;19912;-71
2021/05/08 07:31:16;;;;;;;;;;;11.40;69.10;;;;;;5106735;28;20045;-71
2021/05/08 07:33:42;;;;;;;;;;;11.50;68.90;;;;;;5112642;28;19999;-70
2021/05/08 07:36:07;;;;;;;;;;;11.90;68.30;;;;;;5113095;28;19981;-71
2021/05/08 07:38:33;;;;;;;;;;;12.50;68.40;;;;;;5106223;28;19912;-71
2021/05/08 07:40:58;;;;;;;;;;;13.80;66.70;;;;;;5113939;28;19911;-72
2021/05/08 07:43:24;;;;;;;;;;;14.80;64.10;;;;;;5114190;28;19955;-71
2021/05/08 07:45:50;;;;;;;;;;;14.70;66.90;;;;;;5116209;28;19913;-71
2021/05/08 07:48:15;;;;;;;;;;;14.90;68.20;;;;;;5106601;28;20311;-72
2021/05/08 07:50:43;;;;;;;;;;;15.50;66.30;;;;;;5106600;28;19919;-71
2021/05/08 07:53:09;;;;;;;;;;;15.90;64.70;;;;;;5116826;28;19965;-71
2021/05/08 07:55:35;;;;;;;;;;;16.30;63.60;;;;;;5118142;28;19919;-71
2021/05/08 07:58:04;;;;;;;;;;;16.60;60.60;;;;;;5102187;28;19943;-72
2021/05/08 08:00:30;;;;;;;;;;;16.60;61.90;;;;;;5083726;28;20255;-72
2021/05/08 08:02:55;;;;;;;;;;;16.30;63.20;;;;;;5117225;28;19915;-71
2021/05/08 08:05:21;;;;;;;;;;;15.90;63.70;;;;;;5100564;28;19919;-72
2021/05/08 08:07:46;;;;;;;;;;;15.90;63.80;;;;;;5105717;28;19916;-71
2021/05/08 08:10:12;;;;;;;;;;;16.10;63.40;;;;;;5102763;28;19912;-71
2021/05/08 08:12:38;;;;;;;;;;;16.40;63.10;;;;;;5107097;28;20304;-72
2021/05/08 08:15:04;;;;;;;;;;;17.10;61.70;;;;;;5111688;28;19923;-70
2021/05/08 08:17:32;;;;;;;;;;;17.60;61.50;;;;;;5096973;28;19938;-70
2021/05/08 08:19:57;;;;;;;;;;;17.90;60.20;;;;;;5112046;28;19965;-70
2021/05/08 08:22:23;;;;;;;;;;;17.90;60.10;;;;;;5103943;28;19916;-70
2021/05/08 08:24:48;;;;;;;;;;;18.60;60.50;;;;;;5111315;28;19926;-70
2021/05/08 08:27:14;;;;;;;;;;;18.20;59.50;;;;;;5115932;28;19916;-70
2021/05/08 08:29:40;;;;;;;;;;;18.00;60.50;;;;;;5105170;28;20205;-70
2021/05/08 08:32:06;;;;;;;;;;;18.50;57.20;;;;;;5102502;28;19941;-70
2021/05/08 08:34:31;;;;;;;;;;;19.10;55.60;;;;;;5109320;28;20365;-70
2021/05/08 08:36:57;;;;;;;;;;;19.40;57.40;;;;;;5103909;28;19994;-69
2021/05/08 08:39:22;;;;;;;;;;;19.70;57.10;;;;;;5112984;28;19916;-69
2021/05/08 08:41:48;;;;;;;;;;;19.60;56.70;;;;;;5109575;28;19920;-71
2021/05/08 08:44:14;;;;;;;;;;;18.90;57.10;;;;;;5099934;28;19935;-70
2021/05/08 08:46:43;;;;;;;;;;;18.50;57.60;;;;;;5115582;28;19969;-70
2021/05/08 08:49:09;;;;;;;;;;;18.70;59.70;;;;;;5105315;28;20316;-70
2021/05/08 08:51:35;;;;;;;;;;;19.10;56.30;;;;;;5098609;28;20228;-70
2021/05/08 08:54:01;;;;;;;;;;;19.70;54.70;;;;;;5110513;28;19912;-70
2021/05/08 08:56:32;;;;;;;;;;;19.90;54.80;;;;;;5110915;28;19923;-71
2021/05/08 08:59:04;;;;;;;;;;;19.90;55.20;;;;;;5098351;28;19958;-71
2021/05/08 09:01:30;;;;;;;;;;;18.60;56.60;;;;;;5105993;28;19916;-71
2021/05/08 09:03:58;;;;;;;;;;;18.80;56.30;;;;;;5118182;28;20030;-71
2021/05/08 09:06:25;;;;;;;;;;;19.80;55.00;;;;;;5111310;27;20301;-71
2021/05/08 09:08:51;;;;;;;;;;;20.10;54.00;;;;;;5101295;28;19912;-70
2021/05/08 09:11:21;;;;;;;;;;;20.40;53.60;;;;;;5108373;28;19916;-71
2021/05/08 09:13:46;;;;;;;;;;;20.00;52.80;;;;;;5097300;28;19917;-71
2021/05/08 09:16:12;;;;;;;;;;;19.90;52.70;;;;;;5115009;28;19924;-69
2021/05/08 09:18:39;;;;;;;;;;;19.50;54.50;;;;;;5094738;28;19994;-70
2021/05/08 09:21:09;;;;;;;;;;;19.90;51.90;;;;;;5101456;27;19912;-69
2021/05/08 09:23:39;;;;;;;;;;;19.10;52.90;;;;;;5116976;28;20257;-70
2021/05/08 09:26:05;;;;;;;;;;;18.40;54.80;;;;;;5104945;28;19939;-71
2021/05/08 09:28:38;;;;;;;;;;;18.30;54.70;;;;;;5099883;28;20220;-70
2021/05/08 09:31:04;;;;;;;;;;;18.90;53.60;;;;;;5108254;28;19919;-69
2021/05/08 09:33:30;;;;;;;;;;;19.70;54.80;;;;;;5102387;28;19911;-69
2021/05/08 09:35:58;;;;;;;;;;;20.30;51.80;;;;;;5102508;28;20216;-69
2021/05/08 09:38:29;;;;;;;;;;;20.00;51.40;;;;;;5113132;28;19919;-69
2021/05/08 09:40:54;;;;;;;;;;;19.10;53.10;;;;;;5110800;28;19939;-70
2021/05/08 09:43:21;;;;;;;;;;;18.20;54.30;;;;;;5105007;28;20304;-70
2021/05/08 09:45:48;;;;;;;;;;;18.30;55.40;;;;;;5101327;28;19982;-71
2021/05/08 09:48:31;;;;;;;;;;;18.40;56.50;;;;;;5086130;28;20252;-71
2021/05/08 09:51:17;;;;;;;;;;;18.50;57.60;;;;;;5095681;28;19916;-69
2021/05/08 09:53:42;;;;;;;;;;;19.30;55.00;;;;;;5101503;28;19919;-70
2021/05/08 09:56:27;;;;;;;;;;;19.80;53.30;;;;;;5115659;28;19912;-70
2021/05/08 09:58:52;;;;;;;;;;;19.90;54.80;;;;;;5114031;28;19966;-70
2021/05/08 10:01:18;;;;;;;;;;;20.10;53.70;;;;;;5116046;28;19912;-70
2021/05/08 10:03:44;;;;;;;;;;;19.80;52.80;;;;;;5116343;28;19971;-70
2021/05/08 10:06:11;;;;;;;;;;;18.60;53.60;;;;;;5112821;27;19923;-70
2021/05/08 10:08:36;;;;;;;;;;;18.80;55.10;;;;;;5102649;28;19916;-70
2021/05/08 10:11:02;;;;;;;;;;;19.90;53.40;;;;;;5115822;28;19922;-71
2021/05/08 10:13:28;;;;;;;;;;;21.30;50.20;;;;;;5108048;28;20339;-70
2021/05/08 10:15:57;;;;;;;;;;;21.90;49.30;;;;;;5096147;28;19924;-70
2021/05/08 10:18:23;;;;;;;;;;;21.00;51.20;;;;;;5097204;28;20343;-70
2021/05/08 10:20:49;;;;;;;;;;;20.70;50.80;;;;;;5106846;28;19966;-70
2021/05/08 10:23:15;;;;;;;;;;;20.60;52.80;;;;;;5114063;28;20010;-70
2021/05/08 10:25:41;;;;;;;;;;;20.90;50.60;;;;;;5108382;28;20316;-70
2021/05/08 10:28:07;;;;;;;;;;;20.80;51.20;;;;;;5102618;28;19918;-70
2021/05/08 10:30:37;;;;;;;;;;;21.10;50.70;;;;;;5115490;28;19951;-69
2021/05/08 10:33:10;;;;;;;;;;;20.00;50.90;;;;;;5116111;27;19919;-71
2021/05/08 10:35:42;;;;;;;;;;;19.70;52.20;;;;;;5102604;28;19916;-70
2021/05/08 10:38:13;;;;;;;;;;;20.60;49.90;;;;;;5115146;28;19962;-70
2021/05/08 10:40:51;;;;;;;;;;;20.80;48.70;;;;;;5096090;28;19943;-70
2021/05/08 10:43:43;;;;;;;;;;;20.30;49.50;;;;;;5112752;28;19919;-69
2021/05/08 10:49:18;;;;;;;;;;;21.50;47.60;;;;;;5111186;28;19954;-70
2021/05/08 10:51:52;;;;;;;;;;;22.30;49.50;;;;;;5115056;28;19920;-70
2021/05/08 10:54:44;;;;;;;;;;;22.80;46.40;;;;;;5110020;28;20215;-69
2021/05/08 10:57:13;;;;;;;;;;;23.40;46.90;;;;;;5109647;28;19912;-70
2021/05/08 10:59:57;;;;;;;;;;;23.00;46.70;;;;;;5103651;28;19912;-70
2021/05/08 11:02:42;;;;;;;;;;;21.80;48.80;;;;;;5109088;28;20568;-70
2021/05/08 11:05:35;;;;;;;;;;;21.10;50.20;;;;;;5120078;28;19963;-70
2021/05/08 11:08:20;;;;;;;;;;;20.30;50.40;;;;;;5102400;28;19962;-70
2021/05/08 11:10:52;;;;;;;;;;;19.80;51.20;;;;;;5119383;28;20003;-71
2021/05/08 11:13:19;;;;;;;;;;;20.20;50.00;;;;;;5117547;28;21204;-70
2021/05/08 11:16:03;;;;;;;;;;;20.50;50.00;;;;;;5118109;28;19928;-70
2021/05/08 11:18:31;;;;;;;;;;;20.70;50.90;;;;;;5113256;28;19916;-70
2021/05/08 11:20:58;;;;;;;;;;;21.30;49.50;;;;;;5101494;28;19912;-71
2021/05/08 11:23:24;;;;;;;;;;;21.40;48.40;;;;;;5118004;28;19928;-69
2021/05/08 11:25:49;;;;;;;;;;;21.20;51.90;;;;;;5111405;28;20304;-70
2021/05/08 11:28:15;;;;;;;;;;;20.50;50.40;;;;;;5118033;28;19908;-70
2021/05/08 11:30:53;;;;;;;;;;;20.00;51.10;;;;;;5114827;27;19969;-68
2021/05/08 11:33:22;;;;;;;;;;;19.80;52.40;;;;;;5101753;28;19939;-69
2021/05/08 11:36:00;;;;;;;;;;;20.70;52.20;;;;;;5089624;28;19935;-70
2021/05/08 11:38:26;;;;;;;;;;;21.20;51.00;;;;;;5104549;28;19951;-70
2021/05/08 11:40:52;;;;;;;;;;;22.30;49.10;;;;;;5112466;27;19952;-69
2021/05/08 11:43:27;;;;;;;;;;;22.70;48.80;;;;;;5116759;27;19924;-69
2021/05/08 11:45:53;;;;;;;;;;;22.30;48.40;;;;;;5107674;27;19916;-69
2021/05/08 11:48:18;;;;;;;;;;;21.80;49.70;;;;;;5112423;27;19934;-68
2021/05/08 11:50:46;;;;;;;;;;;22.40;49.50;;;;;;5114248;27;19912;-69
2021/05/08 11:53:18;;;;;;;;;;;22.70;47.00;;;;;;5112403;28;19922;-70
2021/05/08 11:55:45;;;;;;;;;;;22.00;47.90;;;;;;5102325;28;20209;-70
2021/05/08 11:58:10;;;;;;;;;;;21.80;49.20;;;;;;5118296;28;20296;-70
2021/05/08 12:00:36;;;;;;;;;;;21.40;50.20;;;;;;5103644;27;19912;-69
2021/05/08 12:03:08;;;;;;;;;;;21.80;49.80;;;;;;5123354;27;19986;-70
2021/05/08 12:05:40;;;;;;;;;;;21.90;50.30;;;;;;5107203;28;20358;-70
2021/05/08 12:08:06;;;;;;;;;;;22.00;50.20;;;;;;5098340;28;20010;-70
2021/05/08 12:10:39;;;;;;;;;;;21.10;50.70;;;;;;5090408;28;19915;-70
2021/05/08 12:13:04;;;;;;;;;;;21.00;50.20;;;;;;5116183;28;20018;-70
2021/05/08 12:15:37;;;;;;;;;;;21.10;50.00;;;;;;5116163;28;20335;-70
2021/05/08 12:18:04;;;;;;;;;;;21.20;50.10;;;;;;5105413;28;19920;-70
2021/05/08 12:20:30;;;;;;;;;;;21.00;51.20;;;;;;5115616;27;20207;-70
2021/05/08 12:23:01;;;;;;;;;;;21.30;50.50;;;;;;5117188;28;20257;-69
2021/05/08 12:25:27;;;;;;;;;;;21.30;49.90;;;;;;5105127;28;20338;-69
2021/05/08 12:28:15;;;;;;;;;;;21.10;52.10;;;;;;5118849;28;19947;-70
2021/05/08 12:30:41;;;;;;;;;;;22.40;50.00;;;;;;5108493;28;19912;-69
2021/05/08 12:33:16;;;;;;;;;;;23.60;46.50;;;;;;5093507;28;19911;-69
2021/05/08 12:35:42;;;;;;;;;;;23.90;46.60;;;;;;5108762;28;19997;-70
2021/05/08 12:38:17;;;;;;;;;;;23.90;45.90;;;;;;5099160;28;19965;-70
2021/05/08 12:40:43;;;;;;;;;;;22.70;47.50;;;;;;5112838;28;20212;-70
2021/05/08 12:43:08;;;;;;;;;;;22.80;48.90;;;;;;5115700;28;19916;-70
2021/05/08 12:45:34;;;;;;;;;;;22.90;47.10;;;;;;5105287;28;20373;-70
2021/05/08 12:47:59;;;;;;;;;;;22.50;47.80;;;;;;5110080;27;19933;-70
2021/05/08 12:50:34;;;;;;;;;;;21.70;49.50;;;;;;5112381;27;19977;-69
2021/05/08 12:53:05;;;;;;;;;;;20.60;52.30;;;;;;5116542;28;20045;-69
2021/05/08 12:55:32;;;;;;;;;;;20.30;51.70;;;;;;5117774;28;19908;-70
2021/05/08 12:58:11;;;;;;;;;;;20.70;50.10;;;;;;5117098;28;19911;-69
2021/05/08 13:00:53;;;;;;;;;;;21.80;48.00;;;;;;5100392;28;19920;-70
2021/05/08 13:03:26;;;;;;;;;;;22.70;48.90;;;;;;5112261;28;19958;-70
2021/05/08 13:05:51;;;;;;;;;;;23.00;48.90;;;;;;5111368;28;19920;-70
2021/05/08 13:08:17;;;;;;;;;;;22.80;48.30;;;;;;5116723;28;19922;-70
2021/05/08 13:10:44;;;;;;;;;;;22.40;47.50;;;;;;5111764;28;20211;-70
2021/05/08 13:13:25;;;;;;;;;;;21.60;51.80;;;;;;5106304;27;19918;-71
2021/05/08 13:15:53;;;;;;;;;;;22.20;48.90;;;;;;5105640;28;19924;-70
2021/05/08 13:18:20;;;;;;;;;;;22.10;48.10;;;;;;5106229;28;19997;-70
2021/05/08 13:20:45;;;;;;;;;;;21.30;48.60;;;;;;5117161;27;19974;-70
2021/05/08 13:23:12;;;;;;;;;;;20.80;50.00;;;;;;5108389;28;19948;-70
2021/05/08 13:25:38;;;;;;;;;;;21.10;49.80;;;;;;5101151;28;19919;-70
2021/05/08 13:28:08;;;;;;;;;;;20.40;49.60;;;;;;5096302;28;20324;-70
2021/05/08 13:30:37;;;;;;;;;;;20.20;49.20;;;;;;5106441;28;19955;-70
2021/05/08 13:33:02;;;;;;;;;;;20.10;49.50;;;;;;5111938;28;20007;-70
2021/05/08 13:35:30;;;;;;;;;;;19.90;50.40;;;;;;5106364;28;19990;-70
2021/05/08 13:37:56;;;;;;;;;;;20.00;50.80;;;;;;5115884;28;19907;-70
2021/05/08 13:40:26;;;;;;;;;;;19.90;49.40;;;;;;5116415;28;19916;-70
2021/05/08 13:42:52;;;;;;;;;;;20.00;49.30;;;;;;5090849;28;19912;-70
2021/05/08 13:45:18;;;;;;;;;;;20.10;49.10;;;;;;5097762;28;20543;-70
2021/05/08 13:47:43;;;;;;;;;;;19.80;49.50;;;;;;5098974;28;19912;-70
2021/05/08 13:50:10;;;;;;;;;;;19.90;51.20;;;;;;5096726;28;20003;-70
2021/05/08 13:52:36;;;;;;;;;;;20.20;51.10;;;;;;5096733;28;19916;-70
2021/05/08 13:55:02;;;;;;;;;;;20.50;49.30;;;;;;5107141;28;19969;-70
2021/05/08 13:57:27;;;;;;;;;;;20.40;50.00;;;;;;5107494;28;19912;-70
2021/05/08 13:59:54;;;;;;;;;;;20.20;51.10;;;;;;5101754;28;19969;-70
2021/05/08 14:02:19;;;;;;;;;;;20.60;50.40;;;;;;5117948;27;19970;-70
2021/05/08 14:04:45;;;;;;;;;;;21.50;49.10;;;;;;5106517;28;19912;-70
2021/05/08 14:07:11;;;;;;;;;;;22.40;46.70;;;;;;5105910;27;19927;-69
2021/05/08 14:09:39;;;;;;;;;;;22.50;46.20;;;;;;5099701;28;19916;-70
2021/05/08 14:12:05;;;;;;;;;;;22.90;47.10;;;;;;5110751;27;19918;-68
2021/05/08 14:14:31;;;;;;;;;;;23.60;45.50;;;;;;5098498;28;19912;-69
2021/05/08 14:16:56;;;;;;;;;;;24.50;46.60;;;;;;5097314;28;20217;-69
2021/05/08 14:19:22;;;;;;;;;;;24.80;46.60;;;;;;5109233;27;19965;-70
2021/05/08 14:21:48;;;;;;;;;;;23.70;45.80;;;;;;5115019;28;19919;-70
2021/05/08 14:24:16;;;;;;;;;;;23.60;47.00;;;;;;5105646;28;19916;-70
2021/05/08 14:26:42;;;;;;;;;;;22.10;49.20;;;;;;5096762;28;20001;-70